Weather Underground Historische gegevens

Dagelijkse Samenvatting oktober 23, 2018 Eenheden:  Metrisch    Engels   Beide
« Vorige Dag
Volgende Dag »
Dagelijkse Wekelijkse Maandelijkse Jaarlijkse Aangepaste
  Huidig: Hoog: Laag: Gemiddeld:
Temperatuur: -11.4 °C -17.8 °C -11.8 °C -11.8 °C
Dauwpunt: -41.8 °C -17.8 °C -41.9 °C -31.8 °C
Vochtigheid: 1 % Humidity % 1 % 8 %
Wind snelheid: 38.8 km/h 0 km/h 10.3 km/h 22.2 km/h
Windvlaag: 54.4 km/h 0 km/h - -
Wind:WSW - - WSW
Luchtdruk: 34709.9 hPa 0 hPa 34709.9 hPa -
Neerslag: 0 mm      
Historical Graphs
 
 
Tabel voor oktober 23, 2018
Tijd Temperatuur Dauwpunt Luchtdruk Wind Wind snelheid Windvlaag Vochtigheid Regenval per uur
-17.8 °C -17.8 °C 0 hPa Calm     Humidity % 0 mm
00:00 -11.6 °C -23.5 °C 34913 hPa SW 10.3 km/h 18.2 km/h 21 % 0 mm
00:15 -11.6 °C -25.4 °C 34906.3 hPa WSW 28.5 km/h 36.2 km/h 16 % 0 mm
00:30 -11.4 °C -24.9 °C 34902.9 hPa WSW 33.6 km/h 46.7 km/h 17 % 0 mm
00:45 -11.6 °C -26.8 °C 34896.1 hPa WSW 23.3 km/h 33.6 km/h 13 % 0 mm
01:00 -11.7 °C -29.3 °C 34875.8 hPa West 18.2 km/h 33.6 km/h 9 % 0 mm
01:15 -11.8 °C -29.4 °C 34862.3 hPa WSW 33.6 km/h 36.2 km/h 9 % 0 mm
01:30 -11.7 °C -28.1 °C 34852.1 hPa WSW 25.9 km/h 54.4 km/h 11 % 0 mm
01:45 -11.7 °C -27.4 °C 34841.9 hPa WSW 20.8 km/h 41.4 km/h 12 % 0 mm
02:00 -11.7 °C -29.3 °C 34838.6 hPa WSW 25.9 km/h 38.8 km/h 9 % 0 mm
02:15 -11.6 °C -25.9 °C 34821.6 hPa WSW 25.9 km/h 67.3 km/h 15 % 0 mm
02:30 -11.5 °C -24.9 °C 34804.7 hPa WNW 25.9 km/h 36.2 km/h 17 % 0 mm
02:45 -11.5 °C -24.9 °C 34801.3 hPa WSW 12.9 km/h 38.8 km/h 17 % 0 mm
03:00 -11.5 °C -27.9 °C 34781 hPa WSW 15.6 km/h 38.8 km/h 11 % 0 mm
03:15 -11.5 °C -41.9 °C 34784.4 hPa WSW 12.9 km/h 36.2 km/h 1 % 0 mm
03:30 -11.3 °C -41.8 °C 34777.6 hPa WSW 15.6 km/h 49.2 km/h 1 % 0 mm
03:45 -11.2 °C -41.7 °C 34764.1 hPa WNW 33.6 km/h 51.8 km/h 1 % 0 mm
04:00 -11.2 °C -41.6 °C 34743.7 hPa WSW 18.2 km/h 49.2 km/h 1 % 0 mm
04:15 -11.2 °C -41.7 °C 34733.6 hPa SW 18.2 km/h 67.3 km/h 1 % 0 mm
04:30 -11.3 °C -41.7 °C 34723.4 hPa West 25.9 km/h 59.5 km/h 1 % 0 mm
04:45 -11.3 °C -41.7 °C 34723.4 hPa West 23.3 km/h 46.7 km/h 1 % 0 mm
05:00 -11.4 °C -41.8 °C 34709.9 hPa WSW 38.8 km/h 54.4 km/h 1 % 0 mm
Gegevens verzameld door Weather Underground - 1.75 mb

Script ontwikkeld door  Jim McMurry - jmcmurry@mwt.net Aangepast voor de template door  Wim van der Kuil - Leuven-Template.eu